Time;durP1;ratioP1;P1;durP2;ratioP2;P2;SDS_P1;SDS_P2;PMS_P1;PMS_P2;Temp;Humidity;BMP_temperature;BMP_pressure;BME280_temperature;BME280_humidity;BME280_pressure;Samples;Min_cycle;Max_cycle;Signal;HPM_P1;HPM_P2
2022/01/02 00:00:22;;;;;;;12.95;6.68;;;;;;;7.47;85.01;100351.81;4882306;29;20609;-86
2022/01/02 00:03:08;;;;;;;14.07;6.82;;;;;;;8.01;84.58;100452.97;4882264;29;20064;-86
2022/01/02 00:06:01;;;;;;;11.45;6.28;;;;;;;7.96;84.68;100462.22;4882450;29;20059;-87
2022/01/02 00:08:48;;;;;;;10.48;5.80;;;;;;;7.80;84.88;100439.81;4881987;29;20055;-86
2022/01/02 00:11:40;;;;;;;12.77;6.38;;;;;;;7.48;84.93;100379.81;4882049;29;20572;-87
2022/01/02 00:14:26;;;;;;;10.15;5.93;;;;;;;8.09;85.12;100494.69;4882639;29;20072;-87
2022/01/02 00:17:12;;;;;;;12.52;5.65;;;;;;;7.45;85.24;100405.13;4882019;29;20120;-86
2022/01/02 00:19:57;;;;;;;10.05;5.88;;;;;;;7.13;84.76;100362.88;4882001;29;20084;-87
2022/01/02 00:22:50;;;;;;;11.32;5.60;;;;;;;8.02;85.11;100513.19;4880821;29;20514;-86
2022/01/02 00:25:39;;;;;;;12.38;5.28;;;;;;;8.02;84.87;100504.69;4855986;29;20547;-87
2022/01/02 00:28:47;;;;;;;12.45;6.50;;;;;;;7.88;85.43;100499.28;4900436;29;20052;-87
2022/01/02 00:31:31;;;;;;;9.93;5.43;;;;;;;7.86;85.25;100495.88;4884660;29;20487;-87
2022/01/02 00:34:19;;;;;;;15.23;6.50;;;;;;;7.08;84.42;100346.72;4885411;29;20052;-87
2022/01/02 00:37:04;;;;;;;17.48;8.00;;;;;;;7.62;85.70;100454.63;4885697;29;20059;-88
2022/01/02 00:39:55;;;;;;;15.73;8.65;;;;;;;7.39;85.30;100436.31;4886239;29;20522;-88
2022/01/02 00:42:38;;;;;;;12.98;7.20;;;;;;;7.56;85.72;100439.25;4885283;29;20054;-88
2022/01/02 00:45:29;;;;;;;14.77;6.93;;;;;;;7.89;85.82;100490.00;4886483;29;20055;-88
2022/01/02 00:48:23;;;;;;;12.98;6.28;;;;;;;7.61;86.64;100427.50;4885930;29;20059;-87
2022/01/02 00:51:18;;;;;;;12.20;6.55;;;;;;;7.25;85.93;100393.63;4885088;29;20487;-87
2022/01/02 00:54:03;;;;;;;13.43;6.65;;;;;;;7.93;86.30;100496.84;4870971;29;20079;-88
2022/01/02 00:56:52;;;;;;;13.80;7.95;;;;;;;7.58;86.75;100437.63;4885432;29;20057;-89
2022/01/02 00:59:49;;;;;;;15.15;8.35;;;;;;;7.81;86.39;100482.19;4899925;29;20053;-88
2022/01/02 01:02:45;;;;;;;13.77;7.10;;;;;;;7.77;86.92;100487.16;4874368;29;20051;-88
2022/01/02 01:05:39;;;;;;;16.60;8.40;;;;;;;6.70;87.02;100321.25;4885752;29;20064;-89
2022/01/02 01:08:24;;;;;;;15.15;7.00;;;;;;;7.52;86.56;100495.00;4885437;29;20048;-89
2022/01/02 01:11:16;;;;;;;13.75;7.32;;;;;;;6.62;86.93;100360.75;4885647;29;20143;-89
2022/01/02 01:13:59;;;;;;;14.38;7.60;;;;;;;7.03;86.79;100439.63;4884763;29;20056;-89
2022/01/02 01:16:44;;;;;;;13.40;7.18;;;;;;;7.18;86.87;100460.31;4885043;29;20510;-88
2022/01/02 01:19:30;;;;;;;15.77;7.35;;;;;;;7.12;87.59;100462.69;4884371;29;20483;-89
2022/01/02 01:22:14;;;;;;;14.13;6.93;;;;;;;6.48;87.27;100359.53;4884608;29;20144;-89
2022/01/02 01:24:58;;;;;;;12.48;6.22;;;;;;;7.05;87.28;100458.28;4885091;29;20053;-89
2022/01/02 01:27:47;;;;;;;12.40;6.20;;;;;;;6.92;87.47;100453.69;4866519;29;20112;-88
2022/01/02 01:30:29;;;;;;;12.38;6.32;;;;;;;6.50;87.72;100385.78;4879837;29;20143;-87
2022/01/02 01:33:17;;;;;;;;;;;;;;;6.82;86.84;100475.44;4867570;29;20068;-88
2022/01/02 01:36:01;;;;;;;13.70;5.68;;;;;;;6.34;87.45;100403.94;4880127;29;19924;-89
2022/01/02 01:38:43;;;;;;;10.15;5.85;;;;;;;6.60;87.22;100463.84;4879875;29;20053;-89
2022/01/02 01:41:38;;;;;;;11.48;5.95;;;;;;;6.35;87.59;100436.09;4880706;29;20052;-87
2022/01/02 01:44:28;;;;;;;10.13;4.95;;;;;;;6.49;87.38;100465.25;4879946;29;20056;-87
2022/01/02 01:47:13;;;;;;;9.88;5.32;;;;;;;5.69;87.54;100373.28;4879644;29;20461;-87
2022/01/02 01:49:58;;;;;;;10.20;5.45;;;;;;;5.44;87.63;100351.47;4879858;29;20568;-87
2022/01/02 01:52:47;;;;;;;9.82;4.88;;;;;;;5.51;87.28;100360.97;4879927;29;20570;-88
2022/01/02 01:55:31;;;;;;;8.95;5.10;;;;;;;5.25;87.05;100345.00;4852364;29;20132;-88
2022/01/02 01:58:14;;;;;;;11.73;5.15;;;;;;;4.83;86.99;100280.41;4879932;29;20499;-88
2022/01/02 02:01:05;;;;;;;10.77;5.53;;;;;;;5.91;86.85;100462.69;4880074;29;20052;-88
2022/01/02 02:04:04;;;;;;;10.20;5.20;;;;;;;4.85;86.64;100308.28;4879863;29;20076;-89
2022/01/02 02:06:59;;;;;;;13.02;5.32;;;;;;;5.71;86.90;100428.25;4879763;29;20076;-87
2022/01/02 02:09:59;;;;;;;12.23;6.88;;;;;;;5.49;87.44;100384.50;4880704;29;20514;-89
2022/01/02 02:12:49;;;;;;;9.60;5.20;;;;;;;4.88;87.53;100283.94;4880717;29;20064;-88
2022/01/02 02:15:41;;;;;;;8.65;5.60;;;;;;;5.24;87.29;100363.50;4879605;29;20063;-87
2022/01/02 02:18:26;;;;;;;10.63;5.38;;;;;;;5.87;87.15;100460.00;4879416;29;20096;-87
2022/01/02 02:21:09;;;;;;;8.77;5.20;;;;;;;5.75;87.45;100452.00;4879689;29;20518;-88
2022/01/02 02:23:51;;;;;;;9.60;5.03;;;;;;;5.61;87.81;100422.88;4879235;29;20124;-88
2022/01/02 02:26:35;;;;;;;9.23;4.82;;;;;;;5.56;87.23;100421.84;4865593;29;20113;-88
2022/01/02 02:29:20;;;;;;;11.55;5.47;;;;;;;5.19;86.96;100372.63;4879307;29;20092;-88
2022/01/02 02:32:01;;;;;;;9.10;4.90;;;;;;;5.43;87.31;100411.34;4879231;29;20104;-87
2022/01/02 02:34:44;;;;;;;8.65;4.95;;;;;;;5.42;87.26;100422.28;4879551;29;20056;-88
2022/01/02 02:37:30;;;;;;;9.77;4.85;;;;;;;5.33;86.94;100419.47;4880166;29;20056;-88
2022/01/02 02:40:16;;;;;;;9.55;4.35;;;;;;;5.22;86.62;100420.81;4879310;29;20060;-88
2022/01/02 02:43:06;;;;;;;9.63;4.80;;;;;;;5.16;86.62;100430.72;4880258;29;20049;-89
2022/01/02 02:51:54;;;;;;;8.18;4.68;;;;;;;4.78;86.42;100385.59;4879202;29;20053;-89
2022/01/02 02:54:57;;;;;;;9.18;5.00;;;;;;;4.95;86.35;100419.88;4881005;29;20049;-89
2022/01/02 02:57:38;;;;;;;8.95;4.55;;;;;;;4.59;86.22;100378.19;4882631;29;20136;-89
2022/01/02 03:00:22;;;;;;;8.15;4.40;;;;;;;4.58;86.43;100401.75;4883097;29;20123;-89
2022/01/02 03:03:03;;;;;;;9.13;4.53;;;;;;;4.71;86.37;100419.06;4882623;29;20049;-89
2022/01/02 03:06:19;;;;;;;9.55;5.30;;;;;;;4.71;86.29;100434.22;4882829;29;20059;-89
2022/01/02 03:09:08;;;;;;;9.90;4.85;;;;;;;4.01;86.71;100328.16;4889340;23;20084;-88
2022/01/02 03:11:56;;;;;;;11.50;5.22;;;;;;;4.75;86.93;100395.63;4882235;29;20053;-86
2022/01/02 03:14:40;;;;;;;10.13;5.65;;;;;;;4.90;86.75;100395.25;4882471;29;20057;-89
2022/01/02 03:17:25;;;;;;;11.77;5.50;;;;;;;4.96;86.82;100413.16;4882265;29;20057;-88
2022/01/02 03:20:10;;;;;;;9.30;4.95;;;;;;;4.72;86.63;100355.91;4882199;29;20059;-88
2022/01/02 03:22:49;;;;;;;9.63;5.50;;;;;;;4.96;86.97;100390.41;4882183;29;20412;-88
2022/01/02 03:25:31;;;;;;;11.75;5.50;;;;;;;4.74;86.72;100345.84;4882437;29;20045;-89
2022/01/02 03:28:17;;;;;;;12.40;5.05;;;;;;;4.84;86.28;100387.47;4881838;29;20084;-90
2022/01/02 03:30:58;;;;;;;9.55;5.22;;;;;;;4.48;86.90;100329.81;4882531;29;20057;-89
2022/01/02 03:33:50;;;;;;;9.25;4.60;;;;;;;4.48;86.77;100323.91;4876185;23;20424;-93
2022/01/02 03:36:43;;;;;;;9.32;5.32;;;;;;;4.85;86.97;100384.97;4888804;23;20052;-90
2022/01/02 03:39:37;;;;;;;8.80;5.18;;;;;;;4.59;86.77;100337.75;4881946;29;20060;-90
2022/01/02 03:42:21;;;;;;;9.23;5.45;;;;;;;4.88;86.94;100372.44;4881832;29;20518;-89
2022/01/02 03:45:06;;;;;;;8.70;5.20;;;;;;;4.78;87.01;100365.34;4881829;29;20460;-89
2022/01/02 03:47:50;;;;;;;9.63;5.45;;;;;;;4.54;86.81;100313.97;4868014;29;20076;-90
2022/01/02 03:50:31;;;;;;;11.25;5.72;;;;;;;4.35;86.81;100276.28;4882105;29;20057;-89
2022/01/02 03:53:13;;;;;;;10.63;5.85;;;;;;;4.40;86.64;100315.19;4868056;29;20053;-89
2022/01/02 03:55:53;;;;;;;11.52;5.40;;;;;;;4.31;86.84;100312.34;4881510;29;20053;-89
2022/01/02 03:58:34;;;;;;;11.45;5.75;;;;;;;4.44;86.68;100324.63;4881485;29;20060;-88
2022/01/02 04:01:19;;;;;;;8.85;5.20;;;;;;;4.49;86.19;100330.66;4881919;29;20057;-89
2022/01/02 04:04:00;;;;;;;9.10;5.13;;;;;;;4.33;86.81;100333.47;4881732;29;20053;-89
2022/01/02 04:06:42;;;;;;;11.35;5.43;;;;;;;4.47;86.41;100357.53;4881720;29;20057;-89
2022/01/02 04:09:24;;;;;;;12.85;5.90;;;;;;;3.67;86.52;100216.69;4881481;29;20045;-89
2022/01/02 04:12:05;;;;;;;13.55;5.90;;;;;;;3.77;86.07;100269.22;4881547;29;20492;-88
2022/01/02 04:14:56;;;;;;;9.90;5.50;;;;;;;3.92;86.28;100315.22;4881839;29;20522;-90
2022/01/02 04:17:43;;;;;;;11.02;5.90;;;;;;;4.12;86.72;100348.75;4881406;29;20132;-89
2022/01/02 04:20:27;;;;;;;10.48;5.40;;;;;;;3.30;86.33;100188.44;4881641;29;20061;-89
2022/01/02 04:23:10;;;;;;;12.52;6.18;;;;;;;3.13;86.27;100164.28;4881114;29;20056;-89
2022/01/02 04:26:02;;;;;;;13.60;6.50;;;;;;;4.01;86.54;100320.59;4881197;29;20512;-89
2022/01/02 04:28:48;;;;;;;12.45;7.07;;;;;;;4.38;86.64;100362.28;4881341;29;20149;-89
2022/01/02 04:32:04;;;;;;;12.32;7.18;;;;;;;4.38;86.41;100353.06;4881655;29;20056;-89
2022/01/02 04:34:47;;;;;;;10.38;5.88;;;;;;;4.23;86.65;100312.09;4880991;29;20049;-89
2022/01/02 04:37:33;;;;;;;12.77;7.00;;;;;;;3.79;86.21;100257.50;4880722;29;20052;-90
2022/01/02 04:40:25;;;;;;;11.65;7.00;;;;;;;4.40;86.37;100368.25;4881117;29;20056;-91
2022/01/02 04:43:18;;;;;;;15.10;7.40;;;;;;;3.82;86.67;100247.53;4881066;29;20051;-88
2022/01/02 04:45:59;;;;;;;15.48;7.53;;;;;;;4.44;86.81;100337.25;4881494;29;20048;-88
2022/01/02 04:48:40;;;;;;;13.50;6.38;;;;;;;4.11;86.81;100301.56;4880564;29;20049;-89
2022/01/02 04:51:32;;;;;;;14.88;6.75;;;;;;;4.26;86.82;100321.44;4881013;29;20051;-88
2022/01/02 04:54:16;;;;;;;12.32;6.25;;;;;;;3.95;86.81;100269.88;4866974;29;20444;-89
2022/01/02 04:57:05;;;;;;;14.30;6.18;;;;;;;4.48;87.17;100360.16;4880442;29;20073;-89
2022/01/02 04:59:48;;;;;;;13.50;6.43;;;;;;;4.39;87.12;100333.69;4880485;29;20105;-90
2022/01/02 05:02:29;;;;;;;13.15;6.07;;;;;;;4.40;86.82;100335.41;4880513;29;20105;-89
2022/01/02 05:05:16;;;;;;;11.13;6.28;;;;;;;3.77;87.09;100246.50;4880543;29;20148;-88
2022/01/02 05:08:08;;;;;;;9.93;5.70;;;;;;;3.43;87.03;100220.88;4881512;29;20135;-89
2022/01/02 05:10:52;;;;;;;8.82;5.05;;;;;;;3.85;87.36;100277.94;4880143;29;20053;-88
2022/01/02 05:13:35;;;;;;;10.52;5.57;;;;;;;4.18;87.12;100302.63;4866717;29;20053;-87
2022/01/02 05:16:17;;;;;;;9.43;5.57;;;;;;;4.15;87.49;100297.50;4880196;29;20092;-89
2022/01/02 05:19:01;;;;;;;10.80;5.35;;;;;;;4.22;87.13;100314.56;4866254;29;20064;-89
2022/01/02 05:21:46;;;;;;;10.27;5.53;;;;;;;3.96;86.92;100266.53;4881080;29;20056;-90
2022/01/02 05:24:35;;;;;;;10.85;5.75;;;;;;;4.10;87.60;100304.91;4880298;29;20550;-89
2022/01/02 05:27:20;;;;;;;10.70;5.60;;;;;;;4.22;87.20;100317.09;4880266;29;20161;-89
2022/01/02 05:30:10;;;;;;;12.55;7.22;;;;;;;3.87;87.29;100253.59;4879849;29;20547;-88
2022/01/02 05:32:51;;;;;;;14.98;7.90;;;;;;;3.93;87.04;100241.19;4879940;29;20049;-89
2022/01/02 05:35:44;;;;;;;;;;;;;;;4.42;87.54;100309.38;4880550;29;20068;-89
2022/01/02 05:38:29;;;;;;;12.77;6.53;;;;;;;4.27;87.41;100267.59;4866068;29;19923;-88
2022/01/02 05:41:26;;;;;;;14.38;7.35;;;;;;;4.58;87.82;100301.50;4879358;29;20109;-88
2022/01/02 05:44:20;;;;;;;12.00;6.60;;;;;;;4.22;87.17;100249.75;4880007;29;20060;-88
2022/01/02 05:47:09;;;;;;;11.48;5.57;;;;;;;4.63;87.92;100291.56;4879041;29;20064;-89
2022/01/02 05:49:56;;;;;;;12.55;6.60;;;;;;;4.47;87.86;100266.56;4865632;29;20057;-89
2022/01/02 05:52:45;;;;;;;10.52;5.80;;;;;;;4.50;87.65;100286.91;4879178;29;20048;-89
2022/01/02 05:56:26;;;;;;;13.95;6.65;;;;;;;4.57;87.72;100316.63;4879355;29;20502;-90
2022/01/02 05:59:09;;;;;;;11.70;5.57;;;;;;;4.63;87.69;100304.19;4878987;29;20092;-89
2022/01/02 06:02:03;;;;;;;11.77;5.47;;;;;;;4.49;87.68;100264.94;4879494;29;20141;-89
2022/01/02 06:04:49;;;;;;;11.38;5.20;;;;;;;4.56;87.63;100282.03;4878948;29;20135;-89
2022/01/02 06:07:34;;;;;;;10.20;5.68;;;;;;;4.58;88.04;100275.38;4878998;29;20139;-88
2022/01/02 06:10:16;;;;;;;9.45;5.18;;;;;;;4.12;87.80;100202.25;4879180;29;20053;-88
2022/01/02 06:12:57;;;;;;;10.82;5.75;;;;;;;4.63;87.89;100281.44;4879576;29;20053;-88
2022/01/02 06:15:41;;;;;;;10.02;6.00;;;;;;;4.49;87.62;100249.78;4878899;29;20057;-88
2022/01/02 06:18:21;;;;;;;12.57;6.88;;;;;;;4.37;87.78;100239.28;4878992;29;20053;-88
2022/01/02 06:21:03;;;;;;;15.52;6.85;;;;;;;3.91;87.39;100162.00;4878936;29;20072;-88
2022/01/02 06:23:44;;;;;;;14.30;7.57;;;;;;;4.43;87.60;100259.72;4878592;29;20089;-88
2022/01/02 06:26:33;;;;;;;19.10;8.15;;;;;;;4.62;87.52;100302.47;4879507;29;20060;-88
2022/01/02 06:29:17;;;;;;;13.15;7.38;;;;;;;4.50;87.39;100279.31;4878997;29;20053;-88
2022/01/02 06:32:04;;;;;;;16.80;8.02;;;;;;;4.56;87.56;100287.09;4881795;29;20053;-88
2022/01/02 06:34:48;;;;;;;17.73;8.70;;;;;;;4.44;87.77;100258.91;4881701;29;20061;-88
2022/01/02 06:37:41;;;;;;;13.05;6.28;;;;;;;4.53;87.84;100247.44;4807376;29;2214380;-88
2022/01/02 06:40:56;;;;;;;16.45;6.60;;;;;;;4.68;87.87;100272.31;4884043;29;20065;-88
2022/01/02 06:43:37;;;;;;;13.30;6.82;;;;;;;4.61;87.77;100261.16;4883171;29;20060;-88
2022/01/02 06:46:25;;;;;;;12.80;6.38;;;;;;;4.71;87.82;100287.59;4882989;29;20076;-88
2022/01/02 06:49:18;;;;;;;13.47;5.40;;;;;;;4.44;87.71;100236.16;4883163;29;20403;-89
2022/01/02 06:52:15;;;;;;;15.18;5.43;;;;;;;4.44;87.81;100251.34;4882618;29;20116;-88
2022/01/02 06:55:08;;;;;;;13.93;5.97;;;;;;;4.56;88.00;100264.34;4883077;29;20530;-88
2022/01/02 06:57:53;;;;;;;15.43;6.50;;;;;;;4.78;88.08;100307.19;4868986;29;20528;-88
2022/01/02 07:00:34;;;;;;;12.40;6.47;;;;;;;4.91;88.42;100326.16;4883387;29;20097;-88
2022/01/02 07:03:20;;;;;;;9.80;5.10;;;;;;;4.74;87.77;100323.09;4882429;29;20525;-89
2022/01/02 07:06:05;;;;;;;12.07;6.20;;;;;;;4.66;88.03;100319.44;4882596;29;20053;-90
2022/01/02 07:08:46;;;;;;;12.02;6.72;;;;;;;4.06;88.35;100243.31;4882613;29;20132;-90
2022/01/02 07:12:23;;;;;;;15.52;6.00;;;;;;;4.54;88.59;100330.00;4882756;29;20057;-89
2022/01/02 07:15:14;;;;;;;11.32;5.78;;;;;;;4.33;88.58;100280.41;4882753;29;20148;-89
2022/01/02 07:17:55;;;;;;;12.65;6.05;;;;;;;4.73;88.44;100323.88;4882260;29;20060;-89
2022/01/02 07:20:36;;;;;;;14.10;6.75;;;;;;;4.78;88.54;100312.25;4883073;29;20427;-89
2022/01/02 07:23:19;;;;;;;15.85;7.63;;;;;;;4.44;88.96;100244.59;4882066;29;20132;-89
2022/01/02 07:26:11;;;;;;;17.88;7.38;;;;;;;4.94;88.79;100313.63;4882590;29;20059;-89
2022/01/02 07:28:52;;;;;;;23.60;9.05;;;;;;;4.44;88.55;100205.84;4868553;29;20053;-88
2022/01/02 07:31:32;;;;;;;22.30;9.00;;;;;;;5.02;88.74;100284.34;4882889;29;20053;-88
2022/01/02 07:34:13;;;;;;;15.25;7.32;;;;;;;5.27;89.00;100313.00;4883179;29;20064;-88
2022/01/02 07:36:53;;;;;;;18.17;7.88;;;;;;;5.32;89.08;100306.41;4888349;29;20052;-88
2022/01/02 07:39:44;;;;;;;19.65;8.90;;;;;;;5.45;89.54;100309.31;4901542;29;20075;-89
2022/01/02 07:42:32;;;;;;;;;;;;;;;5.49;88.92;100313.63;4887903;29;20054;-89
2022/01/02 07:45:19;;;;;;;20.80;9.50;;;;;;;5.39;89.21;100308.31;4887494;29;20460;-89
2022/01/02 07:48:02;;;;;;;21.40;9.35;;;;;;;5.35;89.38;100301.41;4886326;29;20060;-88
2022/01/02 07:50:46;;;;;;;18.52;9.40;;;;;;;5.45;89.30;100309.31;4901190;29;20143;-89
2022/01/02 07:54:00;;;;;;;19.20;8.32;;;;;;;5.38;89.26;100293.91;4887421;29;20519;-89
2022/01/02 07:56:43;;;;;;;20.20;8.02;;;;;;;5.32;89.35;100286.16;4886692;29;20057;-89
2022/01/02 07:59:32;;;;;;;17.13;7.90;;;;;;;5.15;89.23;100262.03;4887730;29;20052;-89
2022/01/02 08:02:41;;;;;;;13.20;7.03;;;;;;;5.29;89.69;100270.88;4887300;29;20059;-88
2022/01/02 08:05:25;;;;;;;14.40;7.97;;;;;;;5.30;89.20;100251.50;4901277;29;20056;-86
2022/01/02 08:08:09;;;;;;;19.63;8.27;;;;;;;5.43;89.28;100274.66;4900956;29;20053;-88
2022/01/02 08:11:02;;;;;;;19.77;9.50;;;;;;;5.14;89.54;100209.69;4901309;29;20052;-88
2022/01/02 08:13:45;;;;;;;21.20;9.45;;;;;;;5.59;89.51;100275.13;4871735;29;20578;-88
2022/01/02 08:16:26;;;;;;;19.70;9.77;;;;;;;5.69;89.82;100272.88;4901110;29;20423;-86
2022/01/02 08:19:07;;;;;;;22.92;9.63;;;;;;;5.65;89.74;100252.50;4885541;29;20056;-87
2022/01/02 08:21:55;;;;;;;20.02;9.30;;;;;;;5.74;89.53;100217.28;4886894;29;20055;-88
2022/01/02 08:24:36;;;;;;;26.20;11.73;;;;;;;5.94;89.35;100228.84;4900785;29;20056;-88
2022/01/02 08:27:18;;;;;;;21.13;10.32;;;;;;;5.58;89.49;100169.59;4900675;29;20052;-88
2022/01/02 08:30:05;;;;;;;20.90;9.35;;;;;;;5.10;89.58;100078.03;4900484;29;20064;-87
2022/01/02 08:32:46;;;;;;;18.58;9.45;;;;;;;5.85;89.51;100195.69;4885750;29;20055;-87
2022/01/02 08:35:38;;;;;;;22.17;10.25;;;;;;;5.23;89.57;100087.66;4900348;29;20144;-88
2022/01/02 08:38:19;;;;;;;21.25;9.07;;;;;;;6.00;89.63;100218.88;4866392;29;20057;-86
2022/01/02 08:41:03;;;;;;;17.70;8.40;;;;;;;6.10;89.72;100248.69;4881539;29;20053;-87
2022/01/02 08:43:46;;;;;;;19.60;10.00;;;;;;;5.84;90.03;100204.06;4880580;29;20510;-85
2022/01/02 08:46:33;;;;;;;21.85;9.73;;;;;;;6.02;90.04;100242.59;4881690;29;20049;-88
2022/01/02 08:49:17;;;;;;;22.00;9.65;;;;;;;4.92;89.82;100060.66;4881463;29;20060;-87
2022/01/02 08:52:08;;;;;;;21.33;10.80;;;;;;;5.84;90.23;100197.34;4880526;29;20053;-87
2022/01/02 08:55:01;;;;;;;16.60;9.70;;;;;;;6.19;90.06;100256.53;4880666;29;20059;-85
2022/01/02 08:57:44;;;;;;;18.65;9.60;;;;;;;6.12;89.92;100234.38;4881365;29;20060;-87
2022/01/02 09:00:28;;;;;;;19.05;9.70;;;;;;;5.95;90.20;100201.00;4881286;29;20059;-87
2022/01/02 09:03:14;;;;;;;20.40;8.55;;;;;;;5.99;90.20;100212.09;4881503;29;20065;-88
2022/01/02 09:05:59;;;;;;;20.20;9.27;;;;;;;5.70;90.07;100168.25;4880020;29;20065;-87
2022/01/02 09:08:52;;;;;;;16.58;8.90;;;;;;;5.99;90.18;100201.97;4875611;29;20060;-86
2022/01/02 09:11:43;;;;;;;15.60;7.88;;;;;;;6.48;90.19;100264.88;4879206;29;20059;-87
2022/01/02 09:14:27;;;;;;;16.23;7.95;;;;;;;6.32;90.37;100247.56;4878047;29;20396;-87
2022/01/02 09:17:07;;;;;;;15.40;7.60;;;;;;;6.12;90.30;100229.31;4862332;29;20056;-87
2022/01/02 09:19:52;;;;;;;19.85;9.65;;;;;;;6.20;90.57;100243.06;4863374;29;20106;-86
2022/01/02 09:22:32;;;;;;;16.88;9.32;;;;;;;6.32;90.66;100248.44;4880850;29;20495;-85
2022/01/02 09:25:13;;;;;;;17.17;8.02;;;;;;;6.46;90.50;100231.03;4870744;29;20045;-83
2022/01/02 09:27:53;;;;;;;20.15;9.02;;;;;;;6.44;90.40;100203.09;4876851;29;20059;-82
2022/01/02 09:30:37;;;;;;;17.83;8.77;;;;;;;6.79;90.82;100230.97;4870554;29;20132;-83
2022/01/02 09:33:17;;;;;;;18.25;9.73;;;;;;;6.94;90.42;100231.31;4875568;29;20053;-85
2022/01/02 09:36:00;;;;;;;17.77;9.43;;;;;;;6.97;90.95;100211.09;4876358;29;20476;-85
2022/01/02 09:38:42;;;;;;;17.52;8.77;;;;;;;7.12;90.68;100229.19;4893495;29;20406;-83
2022/01/02 09:41:30;;;;;;;17.25;8.85;;;;;;;7.21;90.88;100211.63;4880303;29;20526;-85
2022/01/02 09:44:11;;;;;;;16.45;8.73;;;;;;;7.22;90.12;100226.88;4872360;29;20387;-84
2022/01/02 09:46:53;;;;;;;16.70;8.65;;;;;;;7.11;90.44;100210.56;4881368;29;20071;-84
2022/01/02 09:49:37;;;;;;;16.45;8.73;;;;;;;7.23;91.08;100220.13;4874617;29;20049;-83
2022/01/02 09:52:19;;;;;;;15.43;8.45;;;;;;;7.30;90.38;100202.50;4866759;29;20135;-84
2022/01/02 09:54:48;;;;;;;16.42;8.77;;;;;;;7.25;90.33;100178.72;4867045;29;20053;-84
2022/01/02 09:57:19;;;;;;;;;;;;;;;7.49;91.11;100208.81;4898596;29;20101;-83
2022/01/02 09:59:48;;;;;;;18.15;8.80;;;;;;;7.45;90.73;100204.50;4876837;29;20400;-84
2022/01/02 10:02:18;;;;;;;16.55;8.40;;;;;;;7.37;90.16;100199.28;4864698;29;20124;-83
2022/01/02 10:04:48;;;;;;;18.88;9.57;;;;;;;6.62;90.48;100091.13;4884397;29;20044;-84
2022/01/02 10:07:31;;;;;;;17.80;10.30;;;;;;;7.38;90.20;100184.91;4901011;29;20066;-85
2022/01/02 10:10:11;;;;;;;15.95;8.50;;;;;;;7.59;90.67;100184.44;4900309;29;20049;-84
2022/01/02 10:12:41;;;;;;;14.80;6.00;;;;;;;7.50;90.34;100180.06;4887250;29;20053;-82
2022/01/02 10:15:14;;;;;;;18.67;9.45;;;;;;;7.60;90.18;100189.56;4903191;29;20052;-83
2022/01/02 10:17:57;;;;;;;15.13;8.77;;;;;;;7.80;90.14;100179.75;4886418;29;20055;-85
2022/01/02 10:20:33;;;;;;;14.95;7.78;;;;;;;7.75;90.56;100174.59;4900779;29;20052;-84
2022/01/02 10:23:27;;;;;;;15.57;7.85;;;;;;;7.78;89.72;100171.25;4849585;29;20060;-83
2022/01/02 10:26:03;;;;;;;17.10;8.70;;;;;;;7.69;90.17;100126.22;4899410;29;20068;-84
2022/01/02 10:28:37;;;;;;;17.60;8.95;;;;;;;7.94;89.54;100161.41;4895318;29;20044;-85
2022/01/02 10:31:09;;;;;;;18.23;8.55;;;;;;;7.91;90.01;100148.66;4899424;29;20132;-85
2022/01/02 10:33:51;;;;;;;21.02;9.70;;;;;;;7.86;89.60;100144.31;4872728;29;20055;-85
2022/01/02 10:36:28;;;;;;;18.15;9.20;;;;;;;7.88;89.83;100132.50;4893558;29;20428;-83
2022/01/02 10:39:05;;;;;;;18.85;8.70;;;;;;;7.84;90.00;100111.28;4863808;29;20045;-83
2022/01/02 10:41:36;;;;;;;20.42;9.77;;;;;;;8.06;90.06;100128.56;4865676;29;20407;-83
2022/01/02 10:44:26;;;;;;;20.55;11.35;;;;;;;8.11;90.06;100116.78;4866814;29;20075;-83
2022/01/02 10:47:11;;;;;;;19.45;10.48;;;;;;;8.21;89.41;100111.84;4832275;29;20377;-82
2022/01/02 10:49:55;;;;;;;20.35;10.75;;;;;;;8.26;89.68;100107.69;4860493;29;20049;-83
2022/01/02 10:52:28;;;;;;;21.13;9.55;;;;;;;8.28;90.13;100101.00;4864440;29;20049;-82
2022/01/02 10:55:05;;;;;;;19.75;9.77;;;;;;;8.32;89.19;100095.09;4849684;29;20063;-83
2022/01/02 10:57:34;;;;;;;21.17;8.77;;;;;;;8.38;89.19;100095.19;4862988;29;20124;-84
2022/01/02 11:00:05;;;;;;;18.23;9.50;;;;;;;8.64;89.19;100078.59;4828760;29;20052;-82
2022/01/02 11:02:34;;;;;;;17.13;9.32;;;;;;;8.82;89.68;100083.06;4866758;29;20126;-84
2022/01/02 11:05:05;;;;;;;17.70;8.70;;;;;;;8.17;88.64;99943.16;4864638;29;20053;-84
2022/01/02 11:07:40;;;;;;;20.33;9.70;;;;;;;8.73;88.93;99987.13;4858456;29;20049;-83
2022/01/02 11:10:13;;;;;;;17.63;9.32;;;;;;;9.70;88.79;100069.59;4830062;29;20069;-84
2022/01/02 11:12:45;;;;;;;17.63;8.80;;;;;;;10.01;88.56;100069.00;4859908;29;20161;-85
2022/01/02 11:15:16;;;;;;;16.15;9.30;;;;;;;9.50;88.13;99969.22;4852404;29;20077;-87
2022/01/02 11:17:47;;;;;;;14.60;8.63;;;;;;;10.26;87.45;100063.28;4860332;29;20088;-84
2022/01/02 11:20:19;;;;;;;16.05;8.63;;;;;;;10.44;86.63;100052.31;4861362;29;20096;-86
2022/01/02 11:22:57;;;;;;;14.43;8.00;;;;;;;10.33;86.11;100033.56;4862892;29;20049;-83
2022/01/02 11:25:34;;;;;;;14.50;7.32;;;;;;;10.42;85.46;100038.72;4842265;29;20061;-84
2022/01/02 11:28:07;;;;;;;13.02;7.45;;;;;;;10.33;84.98;99983.41;4859462;29;20050;-83
2022/01/02 11:30:42;;;;;;;13.60;7.90;;;;;;;10.96;84.17;100026.22;4860103;29;20053;-83
2022/01/02 11:33:14;;;;;;;13.10;7.55;;;;;;;10.99;83.80;100022.81;4862328;29;20045;-84
2022/01/02 11:35:47;;;;;;;14.05;7.95;;;;;;;11.12;83.11;100024.53;4861123;29;20058;-86
2022/01/02 11:38:19;;;;;;;13.32;6.97;;;;;;;11.25;82.78;100011.78;4857674;29;20049;-83
2022/01/02 11:41:00;;;;;;;11.80;6.38;;;;;;;11.08;82.11;99984.53;4847953;29;20062;-84
2022/01/02 11:43:53;;;;;;;12.10;6.32;;;;;;;11.31;81.50;100000.72;4876357;29;20052;-85
2022/01/02 11:46:29;;;;;;;11.95;6.38;;;;;;;11.18;80.84;99993.91;4878285;29;20041;-81
2022/01/02 11:49:16;;;;;;;11.27;5.75;;;;;;;11.04;80.23;99981.09;4861163;29;20097;-84
2022/01/02 11:51:57;;;;;;;11.95;6.35;;;;;;;11.17;79.89;99981.97;4879625;29;20128;-83
2022/01/02 11:54:46;;;;;;;11.60;6.80;;;;;;;11.03;79.50;99976.00;4874748;29;20094;-84
2022/01/02 11:57:48;;;;;;;10.40;5.68;;;;;;;11.04;79.28;99970.00;4871828;29;20516;-85
2022/01/02 12:00:39;;;;;;;10.77;6.03;;;;;;;11.04;79.33;99965.78;4857544;29;20136;-86
2022/01/02 12:03:40;;;;;;;10.00;5.88;;;;;;;10.74;79.38;99964.00;4844791;29;20501;-83
2022/01/02 12:06:37;;;;;;;15.57;7.88;;;;;;;10.54;79.48;99963.06;4845930;29;20642;-84
2022/01/02 12:09:33;;;;;;;12.85;8.18;;;;;;;10.47;79.66;99961.34;4858005;29;20417;-83
2022/01/02 12:12:24;;;;;;;13.00;7.65;;;;;;;10.60;80.26;99952.91;4860319;29;20049;-84
2022/01/02 12:14:55;;;;;;;13.95;8.55;;;;;;;9.93;80.34;99846.31;4855893;29;20049;-84
2022/01/02 12:17:25;;;;;;;13.52;8.32;;;;;;;10.33;80.41;99918.75;4858852;29;20047;-83
2022/01/02 12:20:01;;;;;;;14.15;7.43;;;;;;;10.51;80.70;99942.63;4856240;29;20049;-84
2022/01/02 12:22:43;;;;;;;18.75;8.70;;;;;;;10.74;80.83;99940.19;4862629;29;20057;-83
2022/01/02 12:25:17;;;;;;;17.85;8.48;;;;;;;10.69;80.31;99901.88;4843163;29;20058;-82
2022/01/02 12:27:55;;;;;;;14.00;7.45;;;;;;;10.84;80.55;99920.63;4853309;29;20041;-85
2022/01/02 12:30:30;;;;;;;15.75;8.45;;;;;;;10.83;80.39;99919.78;4860538;29;20050;-84
2022/01/02 12:33:00;;;;;;;15.48;7.03;;;;;;;10.04;80.67;99804.72;4861649;29;20173;-84
2022/01/02 12:35:39;;;;;;;14.02;7.47;;;;;;;9.82;80.68;99790.19;4854045;29;20073;-85
2022/01/02 12:38:11;;;;;;;13.40;7.38;;;;;;;10.05;80.78;99823.41;4860833;29;20405;-84
2022/01/02 12:40:42;;;;;;;13.55;7.35;;;;;;;10.59;80.93;99891.63;4862434;29;20060;-83
2022/01/02 12:43:12;;;;;;;13.80;7.20;;;;;;;10.49;80.80;99806.53;4862322;29;20054;-83
2022/01/02 12:45:54;;;;;;;11.85;6.18;;;;;;;11.06;80.54;99896.81;4862651;29;20125;-83
2022/01/02 12:48:32;;;;;;;11.98;6.60;;;;;;;10.90;80.35;99892.53;4862300;29;20058;-82
2022/01/02 12:51:11;;;;;;;13.85;6.43;;;;;;;10.70;80.06;99872.94;4861399;29;20143;-82
2022/01/02 12:53:42;;;;;;;13.30;7.03;;;;;;;10.48;80.27;99835.47;4861178;29;20045;-82